Overview Statistics Trail Chart Weather Telemetry Raw packets
 

This is the latest recevied weather packets stored in our database for station/object IW1RCO-13. If no packets are shown the sender has not sent any weather packets the latest 10 day(s).

<< 48 49 50 51 52 53 54 >>
Time Temp. Humidity Pressure Rain* Wind** Luminosity Snow
1788279567 26.11° C 73% 1016 hPa - - - -
1788279270 26.67° C 71% 1017 hPa - - - -
1788278967 26.67° C 73% 1016.3 hPa - - - -
1788278670 26.67° C 71% 1015.9 hPa - - - -
1788278366 27.22° C 71% 1016.9 hPa - - - -
1788278070 27.22° C 70% 1016.6 hPa - - - -
1788277766 27.78° C 67% 1017.4 hPa - - - -
1788277469 27.78° C 67% 1016.8 hPa - - - -
1788277166 27.22° C 70% 1016.5 hPa - - - -
1788276869 27.22° C 70% 1017.2 hPa - - - -
1788276572 27.78° C 68% 1016.9 hPa - - - -
1788276269 27.78° C 70% 1017.4 hPa - - - -
1788275972 27.78° C 69% 1017.7 hPa - - - -
1788275668 28.89° C 68% 1017.5 hPa - - - -
1788275372 28.33° C 68% 1016.2 hPa - - - -
1788273571 27.22° C 71% 1016.7 hPa - - - -
1788273268 26.11° C 72% 1017.5 hPa - - - -
1788272971 25.56° C 74% 1017.3 hPa - - - -
1788272667 27.78° C 68% 1017 hPa - - - -
1788272370 27.22° C 69% 1017.8 hPa - - - -
1788272067 27.22° C 70% 1017.4 hPa - - - -
1788271770 26.67° C 72% 1017.7 hPa - - - -
1788271467 27.22° C 69% 1017.6 hPa - - - -
1788271170 27.22° C 69% 1016.9 hPa - - - -
1788270866 27.22° C 69% 1018 hPa - - - -

* Rain since midnight (hover to see other rain measurements)
** Current wind speed in m/s (hover to see current wind gust speed)